Time;durP1;ratioP1;P1;durP2;ratioP2;P2;SDS_P1;SDS_P2;PMS_P1;PMS_P2;Temp;Humidity;BMP_temperature;BMP_pressure;BME280_temperature;BME280_humidity;BME280_pressure;Samples;Min_cycle;Max_cycle;Signal;HPM_P1;HPM_P2
2023/02/03 00:01:22;;;;;;;2.30;1.40;;;6.10;1.00;;;;;;5097373;28;20270;-37
2023/02/03 00:03:48;;;;;;;2.17;1.40;;;6.10;1.00;;;;;;5097612;28;20582;-40
2023/02/03 00:06:14;;;;;;;1.50;1.20;;;6.10;1.00;;;;;;5097586;28;20168;-38
2023/02/03 00:08:40;;;;;;;1.67;1.13;;;6.10;1.00;;;;;;5096069;28;20684;-38
2023/02/03 00:11:06;;;;;;;1.73;1.27;;;6.00;1.00;;;;;;5095376;28;20458;-38
2023/02/03 00:13:32;;;;;;;2.10;1.23;;;6.00;1.00;;;;;;5097025;28;20521;-37
2023/02/03 00:16:00;;;;;;;1.97;1.30;;;6.00;1.00;;;;;;5096900;28;20175;-37
2023/02/03 00:18:26;;;;;;;2.10;1.10;;;6.00;1.00;;;;;;5097074;28;20470;-38
2023/02/03 00:20:52;;;;;;;2.10;0.97;;;6.00;1.00;;;;;;5097722;28;20407;-38
2023/02/03 00:23:17;;;;;;;1.50;1.00;;;6.00;1.00;;;;;;5097137;28;20426;-38
2023/02/03 00:25:43;;;;;;;1.70;1.00;;;6.00;1.00;;;;;;5096786;28;20227;-38
2023/02/03 00:28:10;;;;;;;2.00;0.83;;;6.00;1.00;;;;;;5097218;28;20238;-38
2023/02/03 00:30:36;;;;;;;0.87;0.70;;;6.00;1.00;;;;;;5096021;28;20416;-38
2023/02/03 00:33:02;;;;;;;1.97;0.87;;;6.00;1.00;;;;;;5096657;28;20294;-37
2023/02/03 00:35:28;;;;;;;1.70;1.00;;;6.00;99.90;;;;;;5096081;28;20434;-38
2023/02/03 00:37:55;;;;;;;1.47;0.90;;;6.00;99.90;;;;;;5096560;28;20449;-38
2023/02/03 00:40:22;;;;;;;1.40;0.90;;;6.00;99.90;;;;;;5096968;28;20565;-38
2023/02/03 00:42:48;;;;;;;2.00;0.93;;;6.00;1.00;;;;;;5097021;28;20789;-39
2023/02/03 00:45:14;;;;;;;1.40;1.20;;;5.90;1.00;;;;;;5097369;28;20784;-37
2023/02/03 00:47:40;;;;;;;1.30;1.00;;;5.90;1.00;;;;;;5097520;28;20199;-38
2023/02/03 00:50:06;;;;;;;1.40;1.10;;;5.90;1.00;;;;;;5097296;28;20176;-43
2023/02/03 00:52:32;;;;;;;1.23;0.87;;;5.90;1.00;;;;;;5097092;28;20430;-38
2023/02/03 00:54:58;;;;;;;1.70;0.83;;;5.90;1.00;;;;;;5097284;28;20828;-38
2023/02/03 00:57:23;;;;;;;1.00;0.77;;;5.90;1.00;;;;;;5097780;28;20232;-38
2023/02/03 00:59:49;;;;;;;1.63;0.93;;;5.90;1.00;;;;;;5095682;28;20243;-39
2023/02/03 01:02:15;;;;;;;1.80;0.90;;;5.90;1.00;;;;;;5095635;28;20262;-37
2023/02/03 01:04:42;;;;;;;1.17;0.80;;;5.90;1.00;;;;;;5095905;28;20304;-43
2023/02/03 01:07:08;;;;;;;2.30;1.00;;;5.90;1.00;;;;;;5096100;28;20438;-35
2023/02/03 01:09:35;;;;;;;1.30;1.10;;;5.90;1.00;;;;;;5095547;28;20448;-35
2023/02/03 01:12:00;;;;;;;1.53;0.90;;;5.90;1.00;;;;;;5096385;28;20445;-35
2023/02/03 01:14:26;;;;;;;1.30;1.00;;;5.90;1.00;;;;;;5096454;28;20473;-38
2023/02/03 01:16:52;;;;;;;1.10;0.80;;;5.90;1.00;;;;;;5097133;28;20241;-35
2023/02/03 01:19:17;;;;;;;1.70;1.10;;;5.90;1.00;;;;;;5096886;28;20219;-36
2023/02/03 01:21:43;;;;;;;2.30;1.17;;;5.90;1.00;;;;;;5097705;28;20191;-35
2023/02/03 01:24:09;;;;;;;1.30;0.80;;;6.00;1.00;;;;;;5096986;28;20506;-36
2023/02/03 01:26:35;;;;;;;1.20;1.10;;;6.00;1.00;;;;;;5097942;28;20260;-36
2023/02/03 01:29:00;;;;;;;3.10;1.10;;;6.00;1.00;;;;;;5097568;28;20627;-35
2023/02/03 01:31:34;;;;;;;1.00;0.70;;;6.00;99.90;;;;;;5101112;28;20681;-35
2023/02/03 01:34:00;;;;;;;2.00;1.27;;;6.00;99.90;;;;;;5100126;28;20260;-35
2023/02/03 01:36:28;;;;;;;1.43;1.10;;;6.00;99.90;;;;;;5101532;28;20486;-36
2023/02/03 01:38:54;;;;;;;1.53;1.17;;;6.00;99.90;;;;;;5101015;28;20470;-35
2023/02/03 01:41:29;;;;;;;1.43;1.17;;;6.00;99.90;;;;;;5101093;28;20474;-36
2023/02/03 01:43:56;;;;;;;2.70;1.50;;;6.00;99.90;;;;;;5100578;28;20180;-35
2023/02/03 01:46:28;;;;;;;1.37;1.07;;;6.00;99.90;;;;;;5101270;28;20692;-36
2023/02/03 01:49:00;;;;;;;1.87;1.60;;;6.00;1.00;;;;;;5100838;28;20426;-35
2023/02/03 01:51:26;;;;;;;2.47;1.23;;;6.00;1.00;;;;;;5098853;28;20850;-36
2023/02/03 01:53:53;;;;;;;1.40;1.10;;;6.00;1.00;;;;;;5099873;28;20536;-36
2023/02/03 01:56:19;;;;;;;1.50;1.30;;;6.00;1.00;;;;;;5099401;28;20180;-35
2023/02/03 01:58:45;;;;;;;3.40;1.63;;;6.00;1.00;;;;;;5100814;28;20863;-36
2023/02/03 02:01:11;;;;;;;2.37;1.50;;;6.00;1.00;;;;;;5099955;28;20515;-35
2023/02/03 02:03:57;;;;;;;2.13;1.30;;;6.00;1.00;;;;;;5099702;28;20452;-37
2023/02/03 02:06:23;;;;;;;2.27;1.40;;;6.00;1.00;;;;;;5100682;28;20458;-39
2023/02/03 02:08:50;;;;;;;2.70;1.77;;;6.00;12.40;;;;;;5100362;28;20434;-35
2023/02/03 02:11:17;;;;;;;2.40;1.50;;;6.00;15.10;;;;;;5099643;28;20271;-36
2023/02/03 02:13:44;;;;;;;2.40;1.57;;;6.00;4.90;;;;;;5100531;28;20430;-35
2023/02/03 02:16:24;;;;;;;1.77;1.50;;;6.00;3.40;;;;;;5101370;28;20430;-36
2023/02/03 02:18:50;;;;;;;1.53;1.43;;;6.00;39.10;;;;;;5099174;28;20458;-36
2023/02/03 02:21:23;;;;;;;2.13;1.27;;;6.00;86.20;;;;;;5100505;28;20411;-35
2023/02/03 02:24:07;;;;;;;3.37;1.30;;;6.00;99.90;;;;;;5099238;28;20232;-36
2023/02/03 02:26:33;;;;;;;2.97;1.63;;;6.00;99.90;;;;;;5100009;28;20483;-36
2023/02/03 02:29:35;;;;;;;2.97;1.60;;;6.00;99.90;;;;;;5100780;28;20422;-36
2023/02/03 02:32:13;;;;;;;5.07;1.63;;;6.00;99.90;;;;;;5100943;28;20211;-36
2023/02/03 02:34:57;;;;;;;3.23;1.40;;;6.00;99.90;;;;;;5099247;28;20438;-36
2023/02/03 02:37:32;;;;;;;2.37;1.73;;;6.00;99.90;;;;;;5100256;28;20415;-36
2023/02/03 02:40:27;;;;;;;3.00;1.80;;;6.00;99.90;;;;;;5100218;28;20580;-36
2023/02/03 02:43:11;;;;;;;2.97;1.53;;;6.00;99.90;;;;;;5085367;28;20465;-36
2023/02/03 02:46:05;;;;;;;1.97;1.67;;;6.00;99.90;;;;;;5100264;28;20467;-36
2023/02/03 02:48:49;;;;;;;2.93;1.17;;;5.90;99.90;;;;;;5092823;28;20709;-36
2023/02/03 02:51:15;;;;;;;2.17;1.60;;;5.90;99.90;;;;;;5099306;28;20423;-35
2023/02/03 02:54:04;;;;;;;1.90;1.43;;;5.90;1.00;;;;;;5099666;28;20450;-36
2023/02/03 02:56:31;;;;;;;1.77;1.33;;;5.90;1.00;;;;;;5099412;28;20425;-36
2023/02/03 02:58:58;;;;;;;1.90;1.63;;;5.90;1.00;;;;;;5099944;28;20466;-36
2023/02/03 03:01:24;;;;;;;2.57;1.30;;;5.90;1.00;;;;;;5098470;28;20888;-36
2023/02/03 03:03:50;;;;;;;1.80;1.23;;;5.90;1.00;;;;;;5099549;28;20813;-36
2023/02/03 03:06:21;;;;;;;2.77;0.90;;;5.90;1.00;;;;;;5098288;28;20179;-36
2023/02/03 03:08:59;;;;;;;2.20;1.80;;;5.90;1.00;;;;;;5098795;28;20430;-36
2023/02/03 03:11:28;;;;;;;1.20;0.97;;;5.90;1.00;;;;;;5099290;28;20426;-36
2023/02/03 03:13:55;;;;;;;3.03;1.30;;;6.00;1.00;;;;;;5099004;28;20555;-36
2023/02/03 03:16:26;;;;;;;1.93;1.17;;;6.00;1.00;;;;;;5098645;28;20949;-35
2023/02/03 03:19:05;;;;;;;1.40;1.00;;;6.00;1.00;;;;;;5097027;28;20473;-35
2023/02/03 03:21:39;;;;;;;1.70;0.90;;;6.00;1.00;;;;;;5099069;28;20410;-35
2023/02/03 03:24:08;;;;;;;1.20;0.83;;;6.00;1.00;;;;;;5097792;28;20567;-35
2023/02/03 03:26:42;;;;;;;1.43;0.97;;;6.00;99.90;;;;;;5098151;28;20399;-36
2023/02/03 03:29:21;;;;;;;1.37;0.73;;;6.00;99.90;;;;;;5097694;28;20434;-36
2023/02/03 03:31:47;;;;;;;1.87;1.00;;;6.00;99.90;;;;;;5097692;28;20407;-36
2023/02/03 03:34:13;;;;;;;1.10;0.70;;;6.00;99.90;;;;;;5099402;28;20423;-36
2023/02/03 03:37:19;;;;;;;1.27;0.73;;;6.00;99.90;;;;;;5098334;28;20732;-35
2023/02/03 03:39:50;;;;;;;1.20;0.60;;;5.90;99.90;;;;;;5056920;28;20475;-38
2023/02/03 03:42:37;;;;;;;1.57;0.83;;;6.00;99.90;;;;;;5040021;28;20420;-37
2023/02/03 03:45:04;;;;;;;1.50;0.70;;;5.90;99.90;;;;;;5081448;28;20426;-36
2023/02/03 03:47:38;;;;;;;0.83;0.60;;;6.00;99.90;;;;;;5096224;28;20479;-36
2023/02/03 03:50:08;;;;;;;1.20;0.60;;;6.00;99.90;;;;;;5096201;28;20517;-37
2023/02/03 03:52:35;;;;;;;2.17;0.63;;;6.00;45.70;;;;;;5095334;28;20433;-37
2023/02/03 03:55:03;;;;;;;2.10;0.60;;;5.90;98.30;;;;;;5098911;28;20433;-36
2023/02/03 03:57:42;;;;;;;1.27;0.70;;;5.90;99.90;;;;;;5098530;28;20402;-36
2023/02/03 04:00:09;;;;;;;1.00;0.70;;;5.90;96.60;;;;;;5094556;28;20466;-37
2023/02/03 04:02:38;;;;;;;0.80;0.50;;;6.00;32.50;;;;;;5096280;28;20517;-36
2023/02/03 04:05:04;;;;;;;1.00;0.67;;;6.00;22.50;;;;;;5094465;28;20426;-36
2023/02/03 04:07:37;;;;;;;1.10;0.70;;;6.00;53.60;;;;;;5095436;28;20419;-37
2023/02/03 04:10:06;;;;;;;1.83;0.83;;;6.00;67.50;;;;;;5096848;28;20430;-37
2023/02/03 04:12:32;;;;;;;1.20;0.77;;;6.00;1.00;;;;;;5094175;28;20414;-37
2023/02/03 04:14:58;;;;;;;1.57;0.43;;;6.00;51.40;;;;;;5094962;28;20456;-40
2023/02/03 04:17:23;;;;;;;1.70;1.00;;;6.00;99.90;;;;;;5094412;28;20288;-37
2023/02/03 04:19:49;;;;;;;1.20;0.70;;;6.00;99.90;;;;;;5095103;28;20226;-36
2023/02/03 04:22:14;;;;;;;1.40;0.80;;;6.00;99.90;;;;;;5097033;28;20179;-38
2023/02/03 04:24:40;;;;;;;1.83;0.87;;;6.00;99.90;;;;;;5096513;28;20317;-36
2023/02/03 04:27:06;;;;;;;1.20;0.80;;;6.00;99.90;;;;;;5097415;28;20444;-37
2023/02/03 04:29:31;;;;;;;1.43;0.80;;;6.00;99.90;;;;;;5096521;28;20191;-37
2023/02/03 04:31:57;;;;;;;1.10;0.63;;;6.00;99.90;;;;;;5096288;28;20177;-37
2023/02/03 04:34:22;;;;;;;1.67;0.90;;;6.00;1.00;;;;;;5097689;28;20195;-36
2023/02/03 04:36:48;;;;;;;1.43;0.93;;;6.00;1.00;;;;;;5097201;28;20172;-36
2023/02/03 04:39:14;;;;;;;1.10;0.80;;;6.00;1.00;;;;;;5093934;28;20326;-36
2023/02/03 04:41:40;;;;;;;1.70;0.70;;;6.00;1.00;;;;;;5095678;28;20172;-37
2023/02/03 04:44:06;;;;;;;1.87;0.70;;;6.00;1.00;;;;;;5093043;28;20545;-36
2023/02/03 04:46:31;;;;;;;1.53;0.97;;;6.00;1.00;;;;;;5092692;28;20513;-37
2023/02/03 04:48:57;;;;;;;2.00;0.83;;;6.00;1.00;;;;;;5093873;28;20204;-37
2023/02/03 04:51:23;;;;;;;0.93;0.80;;;6.00;1.00;;;;;;5093583;28;20176;-37
2023/02/03 04:53:48;;;;;;;2.23;1.10;;;6.00;1.00;;;;;;5093692;28;20191;-37
2023/02/03 04:56:15;;;;;;;1.50;0.80;;;6.00;5.10;;;;;;5095459;28;20423;-37
2023/02/03 04:58:41;;;;;;;2.43;1.10;;;6.00;13.40;;;;;;5096733;28;20246;-37
2023/02/03 05:01:07;;;;;;;1.97;0.87;;;6.00;54.80;;;;;;5096082;28;20737;-37
2023/02/03 05:03:34;;;;;;;2.03;1.10;;;6.00;25.00;;;;;;5097087;28;20180;-37
2023/02/03 05:05:59;;;;;;;1.57;0.90;;;6.00;51.10;;;;;;5100758;28;20476;-37
2023/02/03 05:08:25;;;;;;;1.50;1.00;;;6.00;99.90;;;;;;5100216;28;20901;-37
2023/02/03 05:10:51;;;;;;;1.10;0.80;;;6.00;99.90;;;;;;5100541;28;20179;-37
2023/02/03 05:13:16;;;;;;;1.90;1.00;;;6.00;99.90;;;;;;5099524;28;20271;-37
2023/02/03 05:15:42;;;;;;;1.33;0.97;;;6.00;99.90;;;;;;5099852;28;20279;-36
2023/02/03 05:18:07;;;;;;;1.90;1.10;;;6.00;99.90;;;;;;5097944;28;20181;-37
2023/02/03 05:20:33;;;;;;;1.20;0.90;;;6.00;99.90;;;;;;5099778;28;20164;-37
2023/02/03 05:23:00;;;;;;;2.40;1.13;;;6.00;99.90;;;;;;5098795;28;20173;-36
2023/02/03 05:25:25;;;;;;;1.63;1.10;;;6.00;99.90;;;;;;5098630;28;20229;-36
2023/02/03 05:27:51;;;;;;;1.13;0.90;;;6.00;99.90;;;;;;5097819;28;20948;-36
2023/02/03 05:30:17;;;;;;;1.83;1.37;;;6.00;99.90;;;;;;5099310;28;20800;-37
2023/02/03 05:32:43;;;;;;;1.53;1.20;;;5.90;99.90;;;;;;5095778;28;20199;-37
2023/02/03 05:35:08;;;;;;;1.53;1.17;;;6.00;99.90;;;;;;5098485;28;20457;-37
2023/02/03 05:37:35;;;;;;;3.17;2.10;;;6.00;99.90;;;;;;5098006;28;20169;-37
2023/02/03 05:42:48;;;;;;;2.33;2.13;;;6.00;99.90;;;;;;5095647;28;20463;-37
2023/02/03 05:45:14;;;;;;;1.97;1.77;;;5.90;99.90;;;;;;5094644;28;20421;-37
2023/02/03 05:47:40;;;;;;;1.90;1.70;;;6.00;99.90;;;;;;5098210;28;20402;-36
2023/02/03 05:50:05;;;;;;;2.63;1.53;;;6.00;99.90;;;;;;5097174;28;20419;-36
2023/02/03 05:52:31;;;;;;;2.30;1.40;;;5.90;99.90;;;;;;5097864;28;20184;-37
2023/02/03 05:54:57;;;;;;;2.33;1.43;;;5.90;99.90;;;;;;5096026;28;20416;-36
2023/02/03 05:57:22;;;;;;;3.03;1.33;;;5.90;99.90;;;;;;5094752;28;20202;-36
2023/02/03 05:59:48;;;;;;;1.60;1.10;;;6.00;99.90;;;;;;5093389;28;20204;-36
2023/02/03 06:02:14;;;;;;;2.13;1.30;;;6.00;99.90;;;;;;5091541;28;20492;-37
2023/02/03 06:04:40;;;;;;;1.93;1.33;;;5.90;99.90;;;;;;5094248;28;20492;-36
2023/02/03 06:07:06;;;;;;;1.30;0.90;;;5.90;99.90;;;;;;5091673;28;20767;-37
2023/02/03 06:09:32;;;;;;;1.40;1.10;;;6.00;90.70;;;;;;5091850;28;20231;-36
2023/02/03 06:11:57;;;;;;;1.30;0.97;;;6.00;80.70;;;;;;5092159;28;20187;-36
2023/02/03 06:14:23;;;;;;;2.10;1.40;;;5.90;53.70;;;;;;5093943;28;20476;-37
2023/02/03 06:16:48;;;;;;;1.60;1.40;;;5.90;27.40;;;;;;5092711;28;20176;-36
2023/02/03 06:19:14;;;;;;;3.60;1.20;;;6.00;25.00;;;;;;5089190;28;20459;-36
2023/02/03 06:21:40;;;;;;;2.47;1.33;;;6.00;1.00;;;;;;5086938;28;20271;-37
2023/02/03 06:24:06;;;;;;;2.43;1.23;;;6.00;1.00;;;;;;5087620;28;20232;-37
2023/02/03 06:26:31;;;;;;;2.93;1.27;;;6.00;1.00;;;;;;5092076;28;20463;-36
2023/02/03 06:28:57;;;;;;;1.33;1.23;;;5.90;1.00;;;;;;5091807;28;20430;-37
2023/02/03 06:31:23;;;;;;;1.57;0.90;;;6.00;1.00;;;;;;5091806;28;20202;-36
2023/02/03 06:33:48;;;;;;;2.10;0.93;;;5.90;1.00;;;;;;5093829;28;20222;-37
2023/02/03 06:36:14;;;;;;;1.60;0.80;;;5.90;1.00;;;;;;5093628;28;20237;-36
2023/02/03 06:38:40;;;;;;;1.83;1.00;;;5.90;1.00;;;;;;5095062;28;20307;-37
2023/02/03 06:41:05;;;;;;;1.60;1.30;;;5.90;1.00;;;;;;5094223;28;20156;-37
2023/02/03 06:43:31;;;;;;;1.37;1.10;;;5.90;1.00;;;;;;5090318;28;20424;-37
2023/02/03 06:45:56;;;;;;;2.93;1.40;;;5.90;1.00;;;;;;5089639;28;20169;-36
2023/02/03 06:48:22;;;;;;;1.40;1.20;;;5.90;1.00;;;;;;5092221;28;20577;-37
2023/02/03 06:50:48;;;;;;;1.90;1.10;;;5.90;1.00;;;;;;5091689;28;20255;-37
2023/02/03 06:53:14;;;;;;;1.60;1.20;;;5.90;1.00;;;;;;5093208;28;20188;-36
2023/02/03 06:55:39;;;;;;;2.20;1.20;;;5.90;1.00;;;;;;5094635;28;20278;-37
2023/02/03 06:58:05;;;;;;;5.33;1.57;;;5.90;1.00;;;;;;5092589;28;20631;-36
2023/02/03 07:00:31;;;;;;;1.57;1.40;;;5.90;1.00;;;;;;5093980;28;20176;-36
2023/02/03 07:02:58;;;;;;;1.83;1.10;;;5.90;1.00;;;;;;5092622;28;20175;-37
2023/02/03 07:05:24;;;;;;;1.93;1.13;;;5.90;1.00;;;;;;5092841;28;20175;-37
2023/02/03 07:07:50;;;;;;;2.70;1.00;;;5.90;1.00;;;;;;5092500;28;20407;-36
2023/02/03 07:10:16;;;;;;;1.50;1.20;;;5.90;1.00;;;;;;5093911;28;20757;-37
2023/02/03 07:12:43;;;;;;;1.50;1.10;;;5.90;1.00;;;;;;5092468;28;20461;-37
2023/02/03 07:15:09;;;;;;;1.77;1.10;;;5.90;1.00;;;;;;5093927;28;20571;-36
2023/02/03 07:17:35;;;;;;;3.20;1.47;;;5.90;1.00;;;;;;5094287;28;20410;-36
2023/02/03 07:20:00;;;;;;;1.50;1.00;;;5.90;1.00;;;;;;5093352;28;20640;-36
2023/02/03 07:22:26;;;;;;;3.40;1.60;;;5.80;1.00;;;;;;5091751;28;20279;-37
2023/02/03 07:24:52;;;;;;;1.90;1.70;;;5.90;9.30;;;;;;5091651;28;20348;-37
2023/02/03 07:27:18;;;;;;;1.90;1.37;;;5.90;29.70;;;;;;5095356;28;20169;-37
2023/02/03 07:29:44;;;;;;;2.77;1.47;;;5.90;18.90;;;;;;5094692;28;20185;-37
2023/02/03 07:32:09;;;;;;;4.37;1.50;;;5.90;30.50;;;;;;5092778;28;20414;-36
2023/02/03 07:34:35;;;;;;;1.60;1.50;;;5.90;25.50;;;;;;5095776;28;20227;-36
2023/02/03 07:37:01;;;;;;;1.93;1.70;;;5.90;23.30;;;;;;5092845;28;20388;-38
2023/02/03 07:39:26;;;;;;;2.13;1.70;;;6.00;14.80;;;;;;5093247;28;20617;-37
2023/02/03 07:41:52;;;;;;;2.50;2.13;;;6.00;1.00;;;;;;5092171;28;20212;-37
2023/02/03 07:44:18;;;;;;;2.73;1.80;;;6.00;1.00;;;;;;5093785;28;20173;-37
2023/02/03 07:46:44;;;;;;;3.63;2.20;;;6.10;6.10;;;;;;5092670;28;20229;-38
2023/02/03 07:49:13;;;;;;;4.70;1.73;;;6.20;1.00;;;;;;5095183;28;20176;-36
2023/02/03 07:51:39;;;;;;;1.90;1.70;;;6.20;1.00;;;;;;5095341;28;20421;-36
2023/02/03 07:54:05;;;;;;;3.40;2.30;;;6.20;1.00;;;;;;5093704;28;20438;-37
2023/02/03 07:56:31;;;;;;;4.67;2.03;;;6.30;1.00;;;;;;5091984;28;20453;-37
2023/02/03 07:58:58;;;;;;;2.80;2.30;;;6.30;1.00;;;;;;5091487;28;20534;-36
2023/02/03 08:01:24;;;;;;;2.40;1.93;;;6.30;1.00;;;;;;5089556;28;20504;-37
2023/02/03 08:03:49;;;;;;;2.33;2.13;;;6.30;1.00;;;;;;5094284;28;20430;-37
2023/02/03 08:06:15;;;;;;;2.53;1.77;;;6.30;1.00;;;;;;5092145;28;20455;-36
2023/02/03 08:08:41;;;;;;;5.50;2.77;;;6.30;1.00;;;;;;5092612;28;20188;-37
2023/02/03 08:11:07;;;;;;;7.10;4.07;;;6.20;1.00;;;;;;5094335;28;20184;-37
2023/02/03 08:13:32;;;;;;;7.33;3.67;;;6.20;1.00;;;;;;5092795;28;20184;-37
2023/02/03 08:15:58;;;;;;;5.50;2.93;;;6.20;1.00;;;;;;5092166;28;20506;-37
2023/02/03 08:18:24;;;;;;;2.80;2.10;;;6.20;1.00;;;;;;5093012;28;20180;-37
2023/02/03 08:20:49;;;;;;;4.53;2.20;;;6.20;1.00;;;;;;5092381;28;20181;-36
2023/02/03 08:23:15;;;;;;;3.97;2.10;;;6.30;1.00;;;;;;5092072;28;20177;-37
2023/02/03 08:25:41;;;;;;;3.20;2.07;;;6.30;1.00;;;;;;5092618;28;20228;-36
2023/02/03 08:28:07;;;;;;;3.00;2.17;;;6.30;1.00;;;;;;5091648;28;20446;-37
2023/02/03 08:30:32;;;;;;;3.13;1.90;;;6.40;1.00;;;;;;5092438;28;20250;-37
2023/02/03 08:32:58;;;;;;;3.63;1.97;;;6.40;1.00;;;;;;5090740;28;20495;-37
2023/02/03 08:35:24;;;;;;;3.13;2.33;;;6.40;1.00;;;;;;5091864;28;20259;-37
2023/02/03 08:37:50;;;;;;;3.07;2.17;;;6.50;1.00;;;;;;5088714;28;20567;-38
2023/02/03 08:40:16;;;;;;;3.67;2.40;;;6.50;1.00;;;;;;5092943;28;20299;-37
2023/02/03 08:42:42;;;;;;;6.07;3.43;;;6.50;1.00;;;;;;5091998;28;20183;-37
2023/02/03 08:45:08;;;;;;;6.37;3.83;;;6.50;1.00;;;;;;5093078;28;20406;-37
2023/02/03 08:47:35;;;;;;;7.20;3.73;;;6.60;1.00;;;;;;5091731;28;20319;-36
2023/02/03 08:50:02;;;;;;;6.37;3.70;;;6.60;1.00;;;;;;5094257;28;20192;-37
2023/02/03 08:52:27;;;;;;;6.40;3.50;;;6.70;1.00;;;;;;5091366;28;20418;-37
2023/02/03 08:54:53;;;;;;;8.37;5.10;;;6.70;1.00;;;;;;5090793;28;20704;-37
2023/02/03 08:57:19;;;;;;;4.20;3.10;;;6.80;1.00;;;;;;5093377;28;20187;-37
2023/02/03 08:59:45;;;;;;;5.43;3.57;;;6.90;1.00;;;;;;5091858;28;20500;-37
2023/02/03 09:02:15;;;;;;;2.77;2.10;;;7.10;99.90;;;;;;5092648;28;20718;-38
2023/02/03 09:04:42;;;;;;;3.80;1.20;;;7.10;99.90;;;;;;5093658;28;20434;-40
2023/02/03 09:07:08;;;;;;;4.53;1.30;;;8.60;1.00;;;;;;5092425;28;20491;-42
2023/02/03 09:09:35;;;;;;;4.33;1.93;;;9.40;1.00;;;;;;5093378;28;20429;-42
2023/02/03 09:12:04;;;;;;;2.90;2.13;;;10.20;1.00;;;;;;5094535;28;20739;-38
2023/02/03 09:14:32;;;;;;;8.97;3.90;;;10.90;1.00;;;;;;5092982;28;20422;-38
2023/02/03 09:16:58;;;;;;;10.93;5.50;;;11.20;99.90;;;;;;5091828;28;20419;-38
2023/02/03 09:19:24;;;;;;;10.50;5.37;;;11.20;1.00;;;;;;5093099;28;20470;-38
2023/02/03 09:21:50;;;;;;;10.03;4.97;;;10.90;1.00;;;;;;5092658;28;20483;-38
2023/02/03 09:24:16;;;;;;;10.83;4.70;;;10.60;99.90;;;;;;5091608;28;20562;-38
2023/02/03 09:26:42;;;;;;;5.00;2.87;;;10.40;99.90;;;;;;5094379;28;20413;-38
2023/02/03 09:29:08;;;;;;;2.67;2.10;;;10.10;99.90;;;;;;5093697;28;20532;-38
2023/02/03 09:31:34;;;;;;;3.63;2.10;;;9.90;1.00;;;;;;5095094;28;20418;-38
2023/02/03 09:33:59;;;;;;;2.97;1.57;;;9.80;1.00;;;;;;5093460;28;20172;-38
2023/02/03 09:36:25;;;;;;;3.43;2.33;;;9.60;1.00;;;;;;5094896;28;20187;-38
2023/02/03 09:38:51;;;;;;;4.70;2.87;;;9.50;1.00;;;;;;5094359;28;20276;-38
2023/02/03 09:41:35;;;;;;;6.40;3.50;;;9.50;1.00;;;;;;5093796;28;20414;-36
2023/02/03 09:44:04;;;;;;;7.13;3.00;;;9.40;1.00;;;;;;5095275;28;20202;-38
2023/02/03 09:46:34;;;;;;;5.27;3.17;;;9.40;1.00;;;;;;5093017;28;20837;-38
2023/02/03 09:49:40;;;;;;;7.17;3.53;;;9.40;1.00;;;;;;5094461;28;20496;-38
2023/02/03 09:52:14;;;;;;;7.83;4.23;;;9.40;1.00;;;;;;5018831;28;20822;-38
2023/02/03 09:54:45;;;;;;;10.93;6.23;;;9.30;1.00;;;;;;5018929;28;20718;-39
2023/02/03 09:57:21;;;;;;;5.30;2.93;;;9.40;78.50;;;;;;5060667;28;20453;-38
2023/02/03 09:59:48;;;;;;;5.30;4.00;;;9.40;99.90;;;;;;5097217;28;20755;-38
2023/02/03 10:02:16;;;;;;;6.73;3.87;;;9.50;1.00;;;;;;5096606;28;20408;-38
2023/02/03 10:04:50;;;;;;;4.13;3.00;;;9.50;1.00;;;;;;5096733;28;20495;-37
2023/02/03 10:07:53;;;;;;;2.43;2.20;;;9.50;1.00;;;;;;5097483;28;20418;-38
2023/02/03 10:10:40;;;;;;;3.37;1.97;;;9.50;1.00;;;;;;5065352;28;20426;-38
2023/02/03 10:13:30;;;;;;;2.17;1.80;;;9.40;1.00;;;;;;5095147;28;20441;-38
2023/02/03 10:16:16;;;;;;;2.40;1.43;;;9.40;1.00;;;;;;5056487;28;20510;-38
2023/02/03 10:18:56;;;;;;;3.67;1.50;;;9.40;1.00;;;;;;5094239;28;20543;-38
2023/02/03 10:21:47;;;;;;;2.77;1.00;;;9.40;1.00;;;;;;5094223;28;20839;-38
2023/02/03 10:24:23;;;;;;;1.97;1.40;;;9.40;1.00;;;;;;5095436;28;20764;-38
2023/02/03 10:26:50;;;;;;;3.60;1.80;;;9.40;1.00;;;;;;5094604;28;20806;-38
2023/02/03 10:29:20;;;;;;;2.13;1.47;;;9.30;1.00;;;;;;5093360;28;20481;-38
2023/02/03 10:31:46;;;;;;;1.80;1.27;;;9.40;1.00;;;;;;5095534;28;20406;-38
2023/02/03 10:34:14;;;;;;;1.43;1.03;;;9.40;1.00;;;;;;5095051;28;20465;-38
2023/02/03 10:36:45;;;;;;;1.50;0.97;;;9.40;1.00;;;;;;5094519;28;20567;-38
2023/02/03 10:39:30;;;;;;;2.07;1.10;;;9.40;1.00;;;;;;5092261;28;20915;-38
2023/02/03 10:41:55;;;;;;;1.60;1.10;;;9.30;1.00;;;;;;5092325;28;20414;-39
2023/02/03 10:44:30;;;;;;;1.70;1.40;;;9.30;33.30;;;;;;5093565;28;20708;-38
2023/02/03 10:46:56;;;;;;;2.80;1.10;;;9.30;99.90;;;;;;5093817;28;20270;-38
2023/02/03 10:49:26;;;;;;;2.37;0.90;;;9.30;99.90;;;;;;5094104;28;20426;-38
2023/02/03 10:51:54;;;;;;;1.67;1.13;;;9.40;65.60;;;;;;5094552;28;20476;-37
2023/02/03 10:54:32;;;;;;;2.97;1.20;;;9.40;76.80;;;;;;5095783;28;20508;-40
2023/02/03 10:57:09;;;;;;;2.47;1.20;;;9.40;6.00;;;;;;5097136;28;20920;-38
2023/02/03 10:59:35;;;;;;;2.20;1.30;;;9.40;1.00;;;;;;5096245;28;20528;-38
2023/02/03 11:02:27;;;;;;;1.43;1.10;;;9.40;1.00;;;;;;5095704;28;20475;-38
2023/02/03 11:05:14;;;;;;;1.40;1.03;;;9.50;1.00;;;;;;5095533;28;20426;-38
2023/02/03 11:07:40;;;;;;;1.40;0.97;;;9.60;1.00;;;;;;5095822;28;20398;-38
2023/02/03 11:10:34;;;;;;;1.60;1.00;;;9.90;99.90;;;;;;5096355;28;20414;-38
2023/02/03 11:13:20;;;;;;;1.30;0.90;;;10.10;1.00;;;;;;5096677;28;20197;-38
2023/02/03 11:15:59;;;;;;;0.83;0.57;;;10.20;1.00;;;;;;5096458;28;20419;-37
2023/02/03 11:18:50;;;;;;;1.10;0.60;;;10.20;99.90;;;;;;5095621;28;20438;-37
2023/02/03 11:21:39;;;;;;;2.27;1.13;;;10.20;99.90;;;;;;5097300;28;20820;-37
2023/02/03 11:24:14;;;;;;;1.97;1.00;;;10.20;99.90;;;;;;5095561;28;20514;-37
2023/02/03 11:27:11;;;;;;;1.57;1.20;;;10.20;99.90;;;;;;5094769;28;21074;-37
2023/02/03 11:29:41;;;;;;;1.50;0.97;;;10.10;99.90;;;;;;5088768;28;20438;-37
2023/02/03 11:32:22;;;;;;;1.47;1.00;;;10.20;99.90;;;;;;5094484;28;20834;-38
2023/02/03 11:35:17;;;;;;;1.70;1.03;;;10.20;75.80;;;;;;5091554;28;20430;-38
2023/02/03 11:37:45;;;;;;;1.30;0.80;;;10.10;77.70;;;;;;5092593;28;20450;-36
2023/02/03 11:40:32;;;;;;;1.30;0.80;;;10.10;28.40;;;;;;5094613;28;20795;-38
2023/02/03 11:43:00;;;;;;;1.50;1.17;;;10.10;3.20;;;;;;5093386;28;20424;-37
2023/02/03 11:45:31;;;;;;;1.37;0.83;;;10.00;42.20;;;;;;5092896;28;20457;-38
2023/02/03 11:48:00;;;;;;;1.67;1.27;;;9.90;57.50;;;;;;5090487;28;20415;-36
2023/02/03 11:50:37;;;;;;;1.90;0.80;;;9.80;99.90;;;;;;5091746;28;20416;-37
2023/02/03 11:53:24;;;;;;;1.07;0.60;;;9.80;99.90;;;;;;5090774;28;20437;-37
2023/02/03 11:56:23;;;;;;;1.30;1.00;;;9.70;99.90;;;;;;5091297;28;20762;-37
2023/02/03 11:58:55;;;;;;;1.90;1.20;;;9.60;99.90;;;;;;5094700;28;20466;-37
2023/02/03 12:01:33;;;;;;;1.90;1.20;;;9.60;99.90;;;;;;5074172;28;20418;-37
2023/02/03 12:04:12;;;;;;;2.37;1.47;;;9.60;99.90;;;;;;5093090;28;20536;-37
2023/02/03 12:06:53;;;;;;;1.73;1.13;;;9.60;99.90;;;;;;5093677;28;20421;-37
2023/02/03 12:09:24;;;;;;;1.53;0.93;;;9.60;99.90;;;;;;5093782;28;20664;-38
2023/02/03 12:11:53;;;;;;;4.03;1.30;;;9.60;99.90;;;;;;5089291;28;20434;-38
2023/02/03 12:14:54;;;;;;;1.10;0.73;;;9.60;99.90;;;;;;5093457;28;20434;-37
2023/02/03 12:17:44;;;;;;;1.00;0.70;;;9.60;99.90;;;;;;5090540;28;20441;-36
2023/02/03 12:20:42;;;;;;;0.90;0.63;;;9.60;2.10;;;;;;5073084;28;20478;-38
2023/02/03 12:23:47;;;;;;;1.00;0.53;;;9.60;36.30;;;;;;5093434;28;20450;-39
2023/02/03 12:26:18;;;;;;;1.17;0.60;;;9.70;21.90;;;;;;5056267;28;20432;-37
2023/02/03 12:29:15;;;;;;;1.47;0.90;;;9.80;1.00;;;;;;5090894;28;20434;-37
2023/02/03 12:32:12;;;;;;;1.07;0.80;;;9.90;1.00;;;;;;5076652;28;20430;-35
2023/02/03 12:34:45;;;;;;;1.47;0.70;;;9.90;1.00;;;;;;5089227;28;20567;-37
2023/02/03 12:37:22;;;;;;;1.27;0.60;;;9.90;1.00;;;;;;5089433;28;20708;-37
2023/02/03 12:39:58;;;;;;;1.43;0.93;;;9.90;1.00;;;;;;5090683;28;20469;-38
2023/02/03 12:42:36;;;;;;;1.53;0.93;;;9.80;1.00;;;;;;5088634;28;20441;-38
2023/02/03 12:45:15;;;;;;;1.27;0.90;;;9.70;1.00;;;;;;5091449;28;20537;-37
2023/02/03 12:47:46;;;;;;;1.03;0.60;;;9.60;1.00;;;;;;5092853;28;20434;-37
2023/02/03 12:50:43;;;;;;;1.90;1.10;;;9.50;1.00;;;;;;5090015;28;20454;-36
2023/02/03 12:53:15;;;;;;;3.57;1.47;;;9.40;1.00;;;;;;5081556;28;20460;-37
2023/02/03 12:55:45;;;;;;;1.83;1.17;;;9.30;1.00;;;;;;5092266;28;20551;-37
2023/02/03 12:58:39;;;;;;;1.80;1.17;;;9.20;1.00;;;;;;5092680;28;20565;-37
2023/02/03 13:01:15;;;;;;;2.43;1.33;;;9.10;1.00;;;;;;5091968;28;20541;-38
2023/02/03 13:03:56;;;;;;;3.10;0.90;;;9.00;57.70;;;;;;5091735;28;20426;-38
2023/02/03 13:06:40;;;;;;;1.57;1.30;;;8.90;99.90;;;;;;5090798;28;20434;-37
2023/02/03 13:09:20;;;;;;;1.20;0.60;;;8.90;99.90;;;;;;5094210;28;20436;-38
2023/02/03 13:12:14;;;;;;;2.50;1.10;;;8.90;99.90;;;;;;5093328;28;20407;-38
2023/02/03 13:14:48;;;;;;;1.60;0.90;;;8.80;99.90;;;;;;5092214;28;20696;-37
2023/02/03 13:17:24;;;;;;;1.30;0.70;;;8.80;99.90;;;;;;5089542;28;20525;-37
2023/02/03 13:20:12;;;;;;;1.23;0.60;;;8.70;99.90;;;;;;5092767;28;20503;-38
2023/02/03 13:22:37;;;;;;;2.17;0.90;;;8.70;99.90;;;;;;5095161;28;20417;-38
2023/02/03 13:25:08;;;;;;;1.47;0.90;;;8.70;99.90;;;;;;5095992;28;20470;-38